sensor_id;sensor_type;location;lat;lon;timestamp;P1;durP1;ratioP1;P2;durP2;ratioP2
85038;SDS011;75366;54.588;18.456;2024-02-21T00:01:15;9.20;;;3.30;;
85038;SDS011;75366;54.588;18.456;2024-02-21T00:06:17;18.30;;;3.40;;
85038;SDS011;75366;54.588;18.456;2024-02-21T00:11:19;13.40;;;4.10;;
85038;SDS011;75366;54.588;18.456;2024-02-21T00:16:21;13.80;;;4.10;;
85038;SDS011;75366;54.588;18.456;2024-02-21T00:21:23;15.20;;;4.60;;
85038;SDS011;75366;54.588;18.456;2024-02-21T00:26:24;12.70;;;3.90;;
85038;SDS011;75366;54.588;18.456;2024-02-21T00:31:27;13.40;;;3.20;;
85038;SDS011;75366;54.588;18.456;2024-02-21T00:36:28;14.70;;;3.60;;
85038;SDS011;75366;54.588;18.456;2024-02-21T00:41:30;14.20;;;3.50;;
85038;SDS011;75366;54.588;18.456;2024-02-21T00:46:32;11.60;;;4.10;;
85038;SDS011;75366;54.588;18.456;2024-02-21T00:51:33;16.30;;;3.30;;
85038;SDS011;75366;54.588;18.456;2024-02-21T00:56:35;12.20;;;3.40;;
85038;SDS011;75366;54.588;18.456;2024-02-21T01:01:36;15.30;;;5.30;;
85038;SDS011;75366;54.588;18.456;2024-02-21T01:06:38;13.20;;;4.50;;
85038;SDS011;75366;54.588;18.456;2024-02-21T01:11:43;24.20;;;5.40;;
85038;SDS011;75366;54.588;18.456;2024-02-21T01:16:45;15.80;;;4.20;;
85038;SDS011;75366;54.588;18.456;2024-02-21T01:21:47;13.10;;;4.80;;
85038;SDS011;75366;54.588;18.456;2024-02-21T01:26:49;16.10;;;5.30;;
85038;SDS011;75366;54.588;18.456;2024-02-21T01:31:50;17.70;;;5.20;;
85038;SDS011;75366;54.588;18.456;2024-02-21T01:36:51;14.50;;;5.60;;
85038;SDS011;75366;54.588;18.456;2024-02-21T01:41:53;17.40;;;5.20;;
85038;SDS011;75366;54.588;18.456;2024-02-21T01:46:55;20.80;;;6.80;;
85038;SDS011;75366;54.588;18.456;2024-02-21T01:51:57;16.60;;;4.90;;
85038;SDS011;75366;54.588;18.456;2024-02-21T01:56:58;15.40;;;5.70;;
85038;SDS011;75366;54.588;18.456;2024-02-21T02:02:01;11.00;;;5.60;;
85038;SDS011;75366;54.588;18.456;2024-02-21T02:07:03;21.10;;;6.00;;
85038;SDS011;75366;54.588;18.456;2024-02-21T02:12:08;16.40;;;5.90;;
85038;SDS011;75366;54.588;18.456;2024-02-21T02:17:09;20.50;;;5.50;;
85038;SDS011;75366;54.588;18.456;2024-02-21T02:22:13;17.90;;;5.20;;
85038;SDS011;75366;54.588;18.456;2024-02-21T02:27:23;12.80;;;5.00;;
85038;SDS011;75366;54.588;18.456;2024-02-21T02:32:25;14.10;;;7.30;;
85038;SDS011;75366;54.588;18.456;2024-02-21T02:37:27;20.40;;;5.70;;
85038;SDS011;75366;54.588;18.456;2024-02-21T02:42:28;14.10;;;4.60;;
85038;SDS011;75366;54.588;18.456;2024-02-21T02:47:30;19.10;;;7.50;;
85038;SDS011;75366;54.588;18.456;2024-02-21T02:52:32;16.20;;;4.60;;
85038;SDS011;75366;54.588;18.456;2024-02-21T02:57:34;15.30;;;5.50;;
85038;SDS011;75366;54.588;18.456;2024-02-21T03:02:38;16.80;;;3.80;;
85038;SDS011;75366;54.588;18.456;2024-02-21T03:07:41;14.60;;;5.10;;
85038;SDS011;75366;54.588;18.456;2024-02-21T03:12:43;16.60;;;4.70;;
85038;SDS011;75366;54.588;18.456;2024-02-21T03:17:45;15.90;;;4.50;;
85038;SDS011;75366;54.588;18.456;2024-02-21T03:22:47;10.00;;;4.50;;
85038;SDS011;75366;54.588;18.456;2024-02-21T03:27:49;14.80;;;4.00;;
85038;SDS011;75366;54.588;18.456;2024-02-21T03:32:51;15.00;;;5.00;;
85038;SDS011;75366;54.588;18.456;2024-02-21T03:37:53;10.30;;;4.20;;
85038;SDS011;75366;54.588;18.456;2024-02-21T03:42:55;17.50;;;5.20;;
85038;SDS011;75366;54.588;18.456;2024-02-21T03:47:56;15.80;;;4.10;;
85038;SDS011;75366;54.588;18.456;2024-02-21T03:52:58;12.80;;;4.50;;
85038;SDS011;75366;54.588;18.456;2024-02-21T03:57:59;9.40;;;4.60;;
85038;SDS011;75366;54.588;18.456;2024-02-21T07:47:02;15.60;;;6.80;;
85038;SDS011;75366;54.588;18.456;2024-02-21T07:52:04;24.50;;;12.70;;
85038;SDS011;75366;54.588;18.456;2024-02-21T07:57:26;18.60;;;9.50;;
85038;SDS011;75366;54.588;18.456;2024-02-21T08:02:28;19.40;;;8.70;;
85038;SDS011;75366;54.588;18.456;2024-02-21T08:07:29;23.40;;;9.20;;
85038;SDS011;75366;54.588;18.456;2024-02-21T08:17:34;19.10;;;9.60;;
85038;SDS011;75366;54.588;18.456;2024-02-21T08:22:37;14.20;;;6.80;;
85038;SDS011;75366;54.588;18.456;2024-02-21T08:27:40;21.10;;;8.70;;
85038;SDS011;75366;54.588;18.456;2024-02-21T08:32:42;18.20;;;7.80;;
85038;SDS011;75366;54.588;18.456;2024-02-21T08:37:44;19.00;;;9.00;;
85038;SDS011;75366;54.588;18.456;2024-02-21T08:42:49;14.50;;;8.40;;
85038;SDS011;75366;54.588;18.456;2024-02-21T08:47:51;14.60;;;7.90;;
85038;SDS011;75366;54.588;18.456;2024-02-21T08:52:55;15.00;;;6.20;;
85038;SDS011;75366;54.588;18.456;2024-02-21T08:57:57;14.80;;;7.40;;
85038;SDS011;75366;54.588;18.456;2024-02-21T09:02:59;16.10;;;7.90;;
85038;SDS011;75366;54.588;18.456;2024-02-21T09:08:00;16.70;;;7.00;;
85038;SDS011;75366;54.588;18.456;2024-02-21T09:13:02;14.20;;;9.00;;
85038;SDS011;75366;54.588;18.456;2024-02-21T09:18:05;25.90;;;13.10;;
85038;SDS011;75366;54.588;18.456;2024-02-21T09:23:06;34.70;;;16.80;;
85038;SDS011;75366;54.588;18.456;2024-02-21T09:28:08;21.10;;;9.30;;
85038;SDS011;75366;54.588;18.456;2024-02-21T09:33:10;45.10;;;17.80;;
85038;SDS011;75366;54.588;18.456;2024-02-21T09:38:15;35.30;;;15.70;;
85038;SDS011;75366;54.588;18.456;2024-02-21T09:43:17;35.80;;;18.00;;
85038;SDS011;75366;54.588;18.456;2024-02-21T09:54:08;12.80;;;6.90;;
85038;SDS011;75366;54.588;18.456;2024-02-21T09:59:19;11.70;;;7.30;;
85038;SDS011;75366;54.588;18.456;2024-02-21T10:04:21;11.70;;;7.00;;
85038;SDS011;75366;54.588;18.456;2024-02-21T10:09:23;10.80;;;7.20;;
85038;SDS011;75366;54.588;18.456;2024-02-21T10:14:29;9.50;;;6.70;;
85038;SDS011;75366;54.588;18.456;2024-02-21T10:19:31;8.60;;;5.90;;
85038;SDS011;75366;54.588;18.456;2024-02-21T10:24:33;33.20;;;12.40;;
85038;SDS011;75366;54.588;18.456;2024-02-21T10:29:40;25.40;;;11.80;;
85038;SDS011;75366;54.588;18.456;2024-02-21T10:34:42;27.20;;;10.80;;
85038;SDS011;75366;54.588;18.456;2024-02-21T10:39:46;34.00;;;15.30;;
85038;SDS011;75366;54.588;18.456;2024-02-21T10:44:50;13.30;;;7.10;;
85038;SDS011;75366;54.588;18.456;2024-02-21T10:49:57;24.40;;;13.00;;
85038;SDS011;75366;54.588;18.456;2024-02-21T10:55:09;6.90;;;5.30;;
85038;SDS011;75366;54.588;18.456;2024-02-21T11:00:15;6.80;;;4.90;;
85038;SDS011;75366;54.588;18.456;2024-02-21T11:05:19;7.50;;;5.90;;
85038;SDS011;75366;54.588;18.456;2024-02-21T11:10:24;5.70;;;4.30;;
85038;SDS011;75366;54.588;18.456;2024-02-21T11:15:27;6.30;;;4.60;;
85038;SDS011;75366;54.588;18.456;2024-02-21T11:20:32;8.30;;;5.30;;
85038;SDS011;75366;54.588;18.456;2024-02-21T11:25:35;6.00;;;4.70;;
85038;SDS011;75366;54.588;18.456;2024-02-21T11:30:37;9.80;;;4.90;;
85038;SDS011;75366;54.588;18.456;2024-02-21T11:35:39;5.10;;;3.90;;
85038;SDS011;75366;54.588;18.456;2024-02-21T11:40:41;5.80;;;3.60;;
85038;SDS011;75366;54.588;18.456;2024-02-21T11:45:45;6.20;;;3.90;;
85038;SDS011;75366;54.588;18.456;2024-02-21T11:50:54;7.20;;;4.50;;
85038;SDS011;75366;54.588;18.456;2024-02-21T11:55:56;4.10;;;3.00;;
85038;SDS011;75366;54.588;18.456;2024-02-21T12:00:58;5.40;;;3.80;;
85038;SDS011;75366;54.588;18.456;2024-02-21T12:06:00;4.20;;;3.10;;
85038;SDS011;75366;54.588;18.456;2024-02-21T12:11:03;5.70;;;3.00;;
85038;SDS011;75366;54.588;18.456;2024-02-21T12:16:04;4.60;;;2.90;;
85038;SDS011;75366;54.588;18.456;2024-02-21T12:21:27;5.70;;;2.80;;
85038;SDS011;75366;54.588;18.456;2024-02-21T12:26:51;3.40;;;2.20;;
85038;SDS011;75366;54.588;18.456;2024-02-21T12:32:13;5.30;;;2.60;;
85038;SDS011;75366;54.588;18.456;2024-02-21T12:37:15;5.70;;;3.10;;
85038;SDS011;75366;54.588;18.456;2024-02-21T12:42:17;5.70;;;2.70;;
85038;SDS011;75366;54.588;18.456;2024-02-21T12:47:19;3.70;;;2.20;;
85038;SDS011;75366;54.588;18.456;2024-02-21T12:52:25;2.90;;;2.20;;
85038;SDS011;75366;54.588;18.456;2024-02-21T12:57:27;3.20;;;2.00;;
85038;SDS011;75366;54.588;18.456;2024-02-21T13:02:29;8.00;;;2.60;;
85038;SDS011;75366;54.588;18.456;2024-02-21T13:07:50;5.60;;;3.00;;
85038;SDS011;75366;54.588;18.456;2024-02-21T13:13:12;5.40;;;3.10;;
85038;SDS011;75366;54.588;18.456;2024-02-21T13:23:44;6.00;;;2.90;;
85038;SDS011;75366;54.588;18.456;2024-02-21T13:28:45;4.80;;;2.40;;
85038;SDS011;75366;54.588;18.456;2024-02-21T13:33:49;5.70;;;2.70;;
85038;SDS011;75366;54.588;18.456;2024-02-21T13:38:50;6.80;;;3.60;;
85038;SDS011;75366;54.588;18.456;2024-02-21T13:43:54;2.50;;;1.50;;
85038;SDS011;75366;54.588;18.456;2024-02-21T13:49:01;6.70;;;2.40;;
85038;SDS011;75366;54.588;18.456;2024-02-21T13:54:08;4.50;;;2.80;;
85038;SDS011;75366;54.588;18.456;2024-02-21T13:59:11;3.50;;;1.80;;
85038;SDS011;75366;54.588;18.456;2024-02-21T14:04:15;5.30;;;2.20;;
85038;SDS011;75366;54.588;18.456;2024-02-21T14:09:16;7.10;;;2.10;;
85038;SDS011;75366;54.588;18.456;2024-02-21T14:14:18;3.90;;;1.90;;
85038;SDS011;75366;54.588;18.456;2024-02-21T14:19:20;5.50;;;2.70;;
85038;SDS011;75366;54.588;18.456;2024-02-21T14:24:22;7.10;;;2.70;;
85038;SDS011;75366;54.588;18.456;2024-02-21T14:29:24;4.60;;;1.90;;
85038;SDS011;75366;54.588;18.456;2024-02-21T14:34:26;5.90;;;2.50;;
85038;SDS011;75366;54.588;18.456;2024-02-21T14:39:29;4.50;;;2.70;;
85038;SDS011;75366;54.588;18.456;2024-02-21T14:44:30;4.40;;;1.90;;
85038;SDS011;75366;54.588;18.456;2024-02-21T14:49:32;4.60;;;2.20;;
85038;SDS011;75366;54.588;18.456;2024-02-21T14:54:34;2.90;;;2.10;;
85038;SDS011;75366;54.588;18.456;2024-02-21T14:59:56;6.70;;;2.80;;
85038;SDS011;75366;54.588;18.456;2024-02-21T15:04:59;8.90;;;3.40;;
85038;SDS011;75366;54.588;18.456;2024-02-21T15:10:02;8.00;;;3.10;;
85038;SDS011;75366;54.588;18.456;2024-02-21T15:15:07;7.90;;;2.20;;
85038;SDS011;75366;54.588;18.456;2024-02-21T15:20:09;7.60;;;3.00;;
85038;SDS011;75366;54.588;18.456;2024-02-21T15:25:12;8.90;;;3.70;;
85038;SDS011;75366;54.588;18.456;2024-02-21T15:30:17;4.50;;;2.20;;
85038;SDS011;75366;54.588;18.456;2024-02-21T15:35:18;8.70;;;3.60;;
85038;SDS011;75366;54.588;18.456;2024-02-21T15:40:21;5.80;;;2.80;;
85038;SDS011;75366;54.588;18.456;2024-02-21T15:45:42;8.90;;;3.10;;
85038;SDS011;75366;54.588;18.456;2024-02-21T15:51:05;9.50;;;3.50;;
85038;SDS011;75366;54.588;18.456;2024-02-21T15:56:07;4.60;;;2.30;;
85038;SDS011;75366;54.588;18.456;2024-02-21T16:01:09;10.50;;;3.60;;
85038;SDS011;75366;54.588;18.456;2024-02-21T16:06:12;10.00;;;3.00;;
85038;SDS011;75366;54.588;18.456;2024-02-21T16:11:14;6.50;;;2.60;;
85038;SDS011;75366;54.588;18.456;2024-02-21T16:16:20;11.00;;;4.00;;
85038;SDS011;75366;54.588;18.456;2024-02-21T16:21:22;7.30;;;3.40;;
85038;SDS011;75366;54.588;18.456;2024-02-21T16:26:25;6.40;;;2.00;;
85038;SDS011;75366;54.588;18.456;2024-02-21T16:31:27;8.60;;;3.30;;
85038;SDS011;75366;54.588;18.456;2024-02-21T16:36:28;14.30;;;3.80;;
85038;SDS011;75366;54.588;18.456;2024-02-21T16:41:30;15.50;;;4.90;;
85038;SDS011;75366;54.588;18.456;2024-02-21T16:46:32;6.80;;;4.10;;
85038;SDS011;75366;54.588;18.456;2024-02-21T16:51:33;16.80;;;5.00;;
85038;SDS011;75366;54.588;18.456;2024-02-21T16:56:56;7.30;;;3.30;;
85038;SDS011;75366;54.588;18.456;2024-02-21T17:02:20;8.40;;;3.60;;
85038;SDS011;75366;54.588;18.456;2024-02-21T17:07:55;10.40;;;4.70;;
85038;SDS011;75366;54.588;18.456;2024-02-21T17:12:57;7.00;;;2.80;;
85038;SDS011;75366;54.588;18.456;2024-02-21T17:17:59;10.50;;;4.90;;
85038;SDS011;75366;54.588;18.456;2024-02-21T17:23:21;4.90;;;2.80;;
85038;SDS011;75366;54.588;18.456;2024-02-21T17:28:26;9.70;;;4.70;;
85038;SDS011;75366;54.588;18.456;2024-02-21T17:33:28;8.30;;;4.00;;
85038;SDS011;75366;54.588;18.456;2024-02-21T17:38:29;15.50;;;5.00;;
85038;SDS011;75366;54.588;18.456;2024-02-21T17:43:31;13.20;;;4.60;;
85038;SDS011;75366;54.588;18.456;2024-02-21T17:48:33;15.20;;;5.10;;
85038;SDS011;75366;54.588;18.456;2024-02-21T17:53:35;10.90;;;3.90;;
85038;SDS011;75366;54.588;18.456;2024-02-21T17:58:37;17.70;;;4.30;;
85038;SDS011;75366;54.588;18.456;2024-02-21T18:03:38;9.60;;;4.60;;
85038;SDS011;75366;54.588;18.456;2024-02-21T18:08:40;12.50;;;4.50;;
85038;SDS011;75366;54.588;18.456;2024-02-21T18:13:41;11.00;;;5.30;;
85038;SDS011;75366;54.588;18.456;2024-02-21T18:18:43;15.90;;;4.50;;
85038;SDS011;75366;54.588;18.456;2024-02-21T18:23:44;7.60;;;2.90;;
85038;SDS011;75366;54.588;18.456;2024-02-21T18:28:47;9.40;;;3.20;;
85038;SDS011;75366;54.588;18.456;2024-02-21T18:33:49;10.50;;;3.40;;
85038;SDS011;75366;54.588;18.456;2024-02-21T18:38:50;19.60;;;4.50;;
85038;SDS011;75366;54.588;18.456;2024-02-21T18:43:52;6.50;;;3.10;;
85038;SDS011;75366;54.588;18.456;2024-02-21T18:48:54;9.60;;;2.90;;
85038;SDS011;75366;54.588;18.456;2024-02-21T18:53:55;10.50;;;4.00;;
85038;SDS011;75366;54.588;18.456;2024-02-21T18:58:57;7.90;;;3.10;;
85038;SDS011;75366;54.588;18.456;2024-02-21T19:03:59;8.60;;;3.10;;
85038;SDS011;75366;54.588;18.456;2024-02-21T19:09:02;11.90;;;3.30;;
85038;SDS011;75366;54.588;18.456;2024-02-21T19:14:05;8.80;;;3.30;;
85038;SDS011;75366;54.588;18.456;2024-02-21T19:19:07;14.90;;;4.60;;
85038;SDS011;75366;54.588;18.456;2024-02-21T19:24:09;15.30;;;3.30;;
85038;SDS011;75366;54.588;18.456;2024-02-21T19:29:10;16.70;;;3.20;;
85038;SDS011;75366;54.588;18.456;2024-02-21T19:34:12;15.00;;;4.70;;
85038;SDS011;75366;54.588;18.456;2024-02-21T19:39:14;8.80;;;3.30;;
85038;SDS011;75366;54.588;18.456;2024-02-21T19:44:16;9.10;;;3.00;;
85038;SDS011;75366;54.588;18.456;2024-02-21T19:49:18;9.00;;;4.30;;
85038;SDS011;75366;54.588;18.456;2024-02-21T19:54:20;13.30;;;4.10;;
85038;SDS011;75366;54.588;18.456;2024-02-21T19:59:26;19.40;;;4.90;;
85038;SDS011;75366;54.588;18.456;2024-02-21T20:04:28;9.40;;;3.50;;
85038;SDS011;75366;54.588;18.456;2024-02-21T20:09:30;11.70;;;4.70;;
85038;SDS011;75366;54.588;18.456;2024-02-21T20:14:31;15.10;;;3.80;;
85038;SDS011;75366;54.588;18.456;2024-02-21T20:19:33;13.20;;;4.30;;
85038;SDS011;75366;54.588;18.456;2024-02-21T20:24:36;11.70;;;4.00;;
85038;SDS011;75366;54.588;18.456;2024-02-21T20:29:57;18.70;;;4.60;;
85038;SDS011;75366;54.588;18.456;2024-02-21T20:35:19;16.00;;;3.90;;
85038;SDS011;75366;54.588;18.456;2024-02-21T20:40:41;8.60;;;3.60;;
85038;SDS011;75366;54.588;18.456;2024-02-21T20:45:42;13.70;;;4.40;;
85038;SDS011;75366;54.588;18.456;2024-02-21T20:50:43;12.10;;;3.90;;
85038;SDS011;75366;54.588;18.456;2024-02-21T20:55:45;14.30;;;4.30;;
85038;SDS011;75366;54.588;18.456;2024-02-21T21:00:47;13.60;;;4.80;;
85038;SDS011;75366;54.588;18.456;2024-02-21T21:05:48;9.10;;;4.50;;
85038;SDS011;75366;54.588;18.456;2024-02-21T21:10:50;9.00;;;3.80;;
85038;SDS011;75366;54.588;18.456;2024-02-21T21:15:52;7.30;;;3.50;;
85038;SDS011;75366;54.588;18.456;2024-02-21T21:20:53;6.60;;;3.70;;
85038;SDS011;75366;54.588;18.456;2024-02-21T21:25:55;16.10;;;3.50;;
85038;SDS011;75366;54.588;18.456;2024-02-21T21:30:57;10.60;;;3.10;;
85038;SDS011;75366;54.588;18.456;2024-02-21T21:35:59;10.00;;;2.80;;
85038;SDS011;75366;54.588;18.456;2024-02-21T21:41:02;12.80;;;3.90;;
85038;SDS011;75366;54.588;18.456;2024-02-21T21:46:03;17.80;;;5.50;;
85038;SDS011;75366;54.588;18.456;2024-02-21T21:51:05;10.60;;;4.70;;
85038;SDS011;75366;54.588;18.456;2024-02-21T21:56:06;10.20;;;3.90;;
85038;SDS011;75366;54.588;18.456;2024-02-21T22:01:12;17.60;;;4.90;;
85038;SDS011;75366;54.588;18.456;2024-02-21T22:06:15;10.30;;;4.60;;
85038;SDS011;75366;54.588;18.456;2024-02-21T22:11:16;8.90;;;4.20;;
85038;SDS011;75366;54.588;18.456;2024-02-21T22:16:19;14.80;;;4.60;;
85038;SDS011;75366;54.588;18.456;2024-02-21T22:21:20;11.30;;;4.50;;
85038;SDS011;75366;54.588;18.456;2024-02-21T22:26:22;8.30;;;4.20;;
85038;SDS011;75366;54.588;18.456;2024-02-21T22:31:23;6.40;;;3.60;;
85038;SDS011;75366;54.588;18.456;2024-02-21T22:36:25;8.80;;;4.90;;
85038;SDS011;75366;54.588;18.456;2024-02-21T22:41:27;7.10;;;4.80;;
85038;SDS011;75366;54.588;18.456;2024-02-21T22:46:29;10.00;;;3.40;;
85038;SDS011;75366;54.588;18.456;2024-02-21T22:51:30;11.60;;;4.60;;
85038;SDS011;75366;54.588;18.456;2024-02-21T22:56:32;10.50;;;4.90;;
85038;SDS011;75366;54.588;18.456;2024-02-21T23:01:35;11.50;;;6.00;;
85038;SDS011;75366;54.588;18.456;2024-02-21T23:06:36;12.80;;;4.00;;
85038;SDS011;75366;54.588;18.456;2024-02-21T23:12:02;11.00;;;3.90;;
85038;SDS011;75366;54.588;18.456;2024-02-21T23:17:27;11.80;;;3.60;;
85038;SDS011;75366;54.588;18.456;2024-02-21T23:22:28;7.50;;;3.60;;
85038;SDS011;75366;54.588;18.456;2024-02-21T23:27:30;6.20;;;3.90;;
85038;SDS011;75366;54.588;18.456;2024-02-21T23:32:32;6.10;;;3.50;;
85038;SDS011;75366;54.588;18.456;2024-02-21T23:37:33;8.00;;;3.30;;
85038;SDS011;75366;54.588;18.456;2024-02-21T23:42:36;11.30;;;3.50;;
85038;SDS011;75366;54.588;18.456;2024-02-21T23:47:39;14.20;;;3.60;;
85038;SDS011;75366;54.588;18.456;2024-02-21T23:52:42;10.60;;;3.30;;
85038;SDS011;75366;54.588;18.456;2024-02-21T23:58:03;10.00;;;3.30;;
